createdAt,value
2022-07-28T00:00:26.139Z,17.50
2022-07-28T00:05:30.982Z,17.40
2022-07-28T00:10:34.519Z,17.30
2022-07-28T00:15:37.806Z,17.10
2022-07-28T00:20:42.449Z,17.10
2022-07-28T00:25:45.779Z,17.20
2022-07-28T00:30:49.209Z,17.10
2022-07-28T00:35:53.932Z,17.10
2022-07-28T00:41:12.983Z,17.00
2022-07-28T00:46:19.577Z,17.00
2022-07-28T00:51:26.843Z,16.90
2022-07-28T00:56:30.228Z,16.90
2022-07-28T01:01:33.547Z,16.70
2022-07-28T01:06:50.246Z,16.50
2022-07-28T01:12:02.552Z,16.40
2022-07-28T01:17:11.924Z,16.30
2022-07-28T01:22:22.374Z,16.20
2022-07-28T01:27:39.101Z,16.10
2022-07-28T01:32:49.657Z,16.10
2022-07-28T01:37:58.813Z,16.00
2022-07-28T01:43:07.081Z,16.10
2022-07-28T01:48:15.625Z,16.10
2022-07-28T01:53:20.304Z,16.00
2022-07-28T01:58:26.825Z,15.90
2022-07-28T02:03:32.762Z,15.80
2022-07-28T02:08:38.040Z,15.90
2022-07-28T02:13:42.891Z,15.80
2022-07-28T02:18:49.129Z,15.80
2022-07-28T02:23:53.452Z,15.60
2022-07-28T02:29:00.342Z,15.40
2022-07-28T02:34:07.110Z,15.50
2022-07-28T02:39:19.642Z,15.40
2022-07-28T02:44:28.410Z,15.30
2022-07-28T02:49:36.454Z,15.30
2022-07-28T02:54:42.156Z,15.40
2022-07-28T02:59:46.135Z,15.50
2022-07-28T03:05:00.847Z,15.50
2022-07-28T03:10:05.750Z,15.60
2022-07-28T03:15:10.371Z,15.80
2022-07-28T03:20:15.966Z,15.90
2022-07-28T03:25:24.482Z,15.80
2022-07-28T03:30:30.459Z,15.50
2022-07-28T03:35:40.166Z,15.20
2022-07-28T03:40:46.145Z,14.90
2022-07-28T03:45:50.508Z,14.90
2022-07-28T03:50:55.347Z,15.00
2022-07-28T03:55:58.813Z,14.80
2022-07-28T04:01:02.210Z,14.60
2022-07-28T04:06:07.133Z,14.00
2022-07-28T04:11:10.503Z,14.70
2022-07-28T04:16:13.833Z,14.80
2022-07-28T04:21:18.639Z,15.00
2022-07-28T04:26:21.949Z,15.20
2022-07-28T04:31:25.265Z,15.40
2022-07-28T04:36:30.294Z,15.20
2022-07-28T04:41:35.035Z,14.90
2022-07-28T04:46:38.347Z,15.00
2022-07-28T04:51:45.438Z,15.30
2022-07-28T04:56:48.822Z,15.40
2022-07-28T05:01:52.169Z,15.60
2022-07-28T05:06:56.908Z,15.70
2022-07-28T05:12:00.256Z,15.90
2022-07-28T05:17:03.606Z,16.00
2022-07-28T05:22:08.398Z,16.20
2022-07-28T05:27:12.816Z,16.20
2022-07-28T05:32:18.057Z,16.40
2022-07-28T05:37:22.982Z,16.60
2022-07-28T05:42:26.658Z,16.70
2022-07-28T05:47:29.964Z,15.80
2022-07-28T05:52:34.616Z,17.50
2022-07-28T05:57:38.543Z,18.20
2022-07-28T06:02:42.512Z,18.30
2022-07-28T06:07:48.259Z,19.40
2022-07-28T06:12:53.641Z,20.20
2022-07-28T06:17:56.905Z,20.60
2022-07-28T06:23:01.604Z,21.60
2022-07-28T06:28:05.515Z,21.50
2022-07-28T06:33:11.694Z,21.10
2022-07-28T06:38:20.346Z,24.00
2022-07-28T06:43:23.817Z,22.00
2022-07-28T06:48:29.263Z,22.60
2022-07-28T06:53:34.611Z,23.70
2022-07-28T06:58:38.173Z,23.40
2022-07-28T07:03:42.450Z,24.60
2022-07-28T07:08:48.498Z,21.40
2022-07-28T07:13:52.795Z,24.30
2022-07-28T07:18:56.139Z,24.50
2022-07-28T07:24:00.805Z,24.80
2022-07-28T07:29:04.126Z,25.40
2022-07-28T07:34:07.838Z,26.20
2022-07-28T07:39:12.464Z,26.50
2022-07-28T07:44:15.981Z,26.80
2022-07-28T07:49:19.689Z,26.50
2022-07-28T07:54:24.373Z,26.20
2022-07-28T07:59:27.663Z,26.20
2022-07-28T08:04:32.231Z,26.10
2022-07-28T08:09:42.477Z,26.10
2022-07-28T08:14:47.788Z,26.10
2022-07-28T08:19:51.636Z,26.40
2022-07-28T08:24:56.417Z,26.50
2022-07-28T08:29:59.698Z,27.30
2022-07-28T08:35:30.232Z,25.70
2022-07-28T08:40:29.452Z,27.10
2022-07-28T08:45:37.104Z,27.10
2022-07-28T08:50:40.978Z,27.40
2022-07-28T08:55:46.006Z,28.00
2022-07-28T09:00:49.725Z,28.20
2022-07-28T09:05:53.838Z,28.00
2022-07-28T09:10:58.758Z,29.50
2022-07-28T09:16:02.292Z,29.50
2022-07-28T09:21:05.647Z,29.50
2022-07-28T09:26:12.167Z,29.00
2022-07-28T09:31:16.857Z,29.30
2022-07-28T09:36:20.320Z,29.50
2022-07-28T09:41:25.097Z,29.70
2022-07-28T09:46:30.659Z,29.10
2022-07-28T09:51:35.687Z,30.20
2022-07-28T09:56:43.321Z,30.20
2022-07-28T10:01:58.350Z,30.60
2022-07-28T10:07:05.715Z,30.80
2022-07-28T10:12:21.619Z,30.50
2022-07-28T10:17:32.975Z,30.70
2022-07-28T10:22:43.067Z,31.20
2022-07-28T10:27:50.596Z,30.40
2022-07-28T10:32:55.727Z,30.80
2022-07-28T10:38:01.569Z,31.30
2022-07-28T10:43:07.354Z,31.70
2022-07-28T10:48:12.999Z,31.50
2022-07-28T10:53:27.455Z,32.00
2022-07-28T10:58:44.106Z,32.40
2022-07-28T11:03:49.582Z,31.50
2022-07-28T11:08:53.679Z,30.30
2022-07-28T11:14:34.047Z,31.20
2022-07-28T11:25:23.031Z,32.40
2022-07-28T11:30:54.277Z,33.10
2022-07-28T11:36:00.321Z,34.40
2022-07-28T11:41:30.085Z,34.90
2022-07-28T11:46:38.498Z,34.40
2022-07-28T11:51:51.262Z,33.90
2022-07-28T11:56:59.320Z,33.60
2022-07-28T12:02:04.001Z,33.20
2022-07-28T12:07:10.463Z,33.50
2022-07-28T12:12:13.904Z,32.20
2022-07-28T12:17:18.670Z,32.10
2022-07-28T12:22:22.071Z,33.70
2022-07-28T12:27:32.068Z,33.80
2022-07-28T12:32:37.477Z,34.70
2022-07-28T12:37:42.214Z,34.00
2022-07-28T12:42:46.246Z,33.60
2022-07-28T12:47:56.829Z,33.20
2022-07-28T12:53:05.076Z,33.90
2022-07-28T12:58:09.282Z,31.70
2022-07-28T13:03:25.293Z,34.20
2022-07-28T13:08:29.351Z,31.70
2022-07-28T13:13:45.507Z,32.00
2022-07-28T13:18:53.518Z,32.20
2022-07-28T13:23:57.936Z,32.10
2022-07-28T13:29:01.762Z,30.50
2022-07-28T13:34:07.465Z,30.10
2022-07-28T13:39:11.616Z,29.40
2022-07-28T13:44:15.196Z,29.50
2022-07-28T13:49:22.617Z,30.50
2022-07-28T13:54:26.025Z,31.00
2022-07-28T13:59:29.381Z,30.40
2022-07-28T14:04:34.297Z,30.20
2022-07-28T14:09:39.555Z,29.90
2022-07-28T14:14:47.861Z,30.20
2022-07-28T14:19:53.258Z,30.20
2022-07-28T14:24:56.802Z,30.50
2022-07-28T14:30:03.421Z,30.40
2022-07-28T14:35:10.046Z,30.50
2022-07-28T14:40:13.962Z,31.00
2022-07-28T14:45:17.733Z,31.20
2022-07-28T14:50:22.449Z,30.70
2022-07-28T14:55:25.857Z,30.70
2022-07-28T15:00:29.406Z,30.20
2022-07-28T15:05:34.123Z,29.90
2022-07-28T15:10:38.134Z,30.30
2022-07-28T15:15:44.700Z,30.60
2022-07-28T15:20:50.418Z,29.90
2022-07-28T15:25:56.219Z,30.80
2022-07-28T15:31:00.183Z,30.50
2022-07-28T15:36:05.939Z,30.50
2022-07-28T15:41:12.838Z,30.20
2022-07-28T15:46:17.591Z,29.90
2022-07-28T15:51:25.889Z,29.80
2022-07-28T15:56:30.007Z,29.50
2022-07-28T16:01:34.430Z,29.20
2022-07-28T16:06:57.209Z,28.80
2022-07-28T16:12:00.640Z,28.60
2022-07-28T16:17:04.085Z,28.40
2022-07-28T16:22:08.784Z,28.20
2022-07-28T16:27:12.097Z,28.40
2022-07-28T16:32:15.435Z,28.90
2022-07-28T16:37:20.160Z,29.20
2022-07-28T16:42:23.470Z,29.50
2022-07-28T16:47:26.804Z,29.30
2022-07-28T16:52:31.446Z,29.10
2022-07-28T16:57:34.784Z,28.70
2022-07-28T17:02:38.068Z,28.60
2022-07-28T17:07:45.838Z,28.60
2022-07-28T17:12:50.208Z,28.50
2022-07-28T17:17:54.627Z,28.20
2022-07-28T17:22:59.875Z,27.90
2022-07-28T17:28:03.783Z,27.60
2022-07-28T17:33:08.958Z,27.60
2022-07-28T17:38:15.928Z,27.50
2022-07-28T17:43:20.308Z,27.30
2022-07-28T17:48:24.272Z,27.10
2022-07-28T17:53:30.374Z,26.90
2022-07-28T17:58:33.658Z,26.70
2022-07-28T18:03:57.119Z,26.50
2022-07-28T18:09:06.270Z,26.20
2022-07-28T18:14:10.915Z,25.90
2022-07-28T18:19:14.204Z,25.70
2022-07-28T18:24:21.897Z,25.50
2022-07-28T18:29:26.171Z,25.20
2022-07-28T18:34:45.432Z,25.10
2022-07-28T18:39:50.174Z,24.90
2022-07-28T18:44:53.502Z,24.70
2022-07-28T18:49:56.829Z,24.60
2022-07-28T18:55:03.226Z,24.50
2022-07-28T19:00:09.332Z,24.40
2022-07-28T19:05:12.840Z,24.30
2022-07-28T19:10:17.553Z,24.20
2022-07-28T19:15:20.911Z,28.20
2022-07-28T19:20:24.218Z,24.20
2022-07-28T19:25:30.549Z,24.10
2022-07-28T19:30:34.252Z,24.10
2022-07-28T19:35:37.700Z,23.90
2022-07-28T19:40:43.317Z,23.70
2022-07-28T19:45:46.834Z,23.60
2022-07-28T19:50:51.119Z,23.60
2022-07-28T19:55:57.083Z,23.60
2022-07-28T20:01:05.490Z,23.60
2022-07-28T20:06:09.910Z,23.50
2022-07-28T20:11:14.765Z,23.40
2022-07-28T20:16:18.684Z,23.30
2022-07-28T20:21:24.108Z,23.20
2022-07-28T20:26:29.222Z,22.90
2022-07-28T20:31:33.735Z,22.80
2022-07-28T20:36:37.999Z,22.60
2022-07-28T20:41:42.691Z,22.30
2022-07-28T20:46:47.238Z,22.20
2022-07-28T20:51:51.790Z,22.10
2022-07-28T20:56:56.751Z,22.10
2022-07-28T21:02:00.220Z,22.00
2022-07-28T21:07:04.120Z,22.00
2022-07-28T21:12:09.894Z,22.00
2022-07-28T21:17:13.188Z,21.80
2022-07-28T21:22:16.587Z,21.70
2022-07-28T21:27:21.547Z,21.60
2022-07-28T21:32:24.848Z,21.50
2022-07-28T21:37:28.101Z,21.40
2022-07-28T21:42:33.337Z,21.40
2022-07-28T21:47:36.757Z,21.30
2022-07-28T21:52:40.138Z,21.20
2022-07-28T21:57:45.850Z,21.10
2022-07-28T22:02:49.445Z,21.10
2022-07-28T22:07:52.880Z,21.00
2022-07-28T22:12:57.675Z,20.90
2022-07-28T22:18:00.980Z,20.90
2022-07-28T22:23:04.425Z,21.00
2022-07-28T22:28:29.695Z,20.90
2022-07-28T22:33:33.488Z,20.90
2022-07-28T22:38:37.038Z,16.80
2022-07-28T22:43:41.722Z,20.90
2022-07-28T22:48:45.238Z,20.90
2022-07-28T22:53:48.606Z,21.00
2022-07-28T22:58:53.254Z,20.90
2022-07-28T23:03:56.627Z,20.90
2022-07-28T23:09:00.474Z,20.90
2022-07-28T23:14:05.213Z,21.10
2022-07-28T23:19:08.551Z,17.20
2022-07-28T23:24:12.012Z,20.90
2022-07-28T23:29:16.762Z,20.90
2022-07-28T23:34:20.224Z,21.00
2022-07-28T23:39:23.504Z,21.10
2022-07-28T23:44:28.201Z,21.10
2022-07-28T23:49:31.513Z,21.20
2022-07-28T23:54:34.814Z,21.20
2022-07-28T23:59:39.540Z,21.00
